KLUM

Details ICAO KLUM
Name MENOMONIE MUNI SCORE FIELD
Region United States
Timezone America/Chicago (UTC-5.0)
Plans Departing 7
Arriving 3
Stats Elevation 895 ft / 273 m (AMSL)
Location 44.892861° -91.868816°
Runways 2
Magnetic Variation 0.961° W
Sunrise 2018-05-27 10:29:02 UTC / 2018-05-27 05:29:02 Local
Sunset 2018-05-28 01:43:10 UTC / 2018-05-27 20:43:10 Local
Advertisement - Login to hide

Runways

ID Width Length Bearing (true) Bearing (mag) Surface Threshold Offset Overrun Length
09 75 ft / 23 m 5,062 ft / 1,543 m 90.57° 91.53° Asphalt 0 ft / 0 m 0 ft / 0 m
18 75 ft / 23 m 3,453 ft / 1,053 m 183.00° 183.96° Asphalt 0 ft / 0 m 0 ft / 0 m
27 75 ft / 23 m 5,062 ft / 1,543 m 270.58° 271.54° Asphalt 0 ft / 0 m 0 ft / 0 m
36 75 ft / 23 m 3,453 ft / 1,053 m 3.00° 3.96° Asphalt 0 ft / 0 m 0 ft / 0 m

Map

Weather


0- 5 10 15 20 25 30 35+ Temperature / ° C

Clouds and Precipitation
Forecast for 2018-05-27 18:00 UTC. Updated 3 hours ago

Ground ~20,000 ft ~40,000 ft Winds

METAR

KLUM 272035Z AUTO 19003KT 10SM CLR 32/13 A2984 RMK AO2 T03160132

TAF

Not found

Frequencies

Recorded 118.02 MHz AWOS 3
Approach 125.30 MHz MINNEAPOLIS APP/DEP
Unicom 122.70 MHz CTAF/UNICOM
Warning: Do not use this data for real-world aviation or navigation. No guarantee of current accuracy is given.